createdAt,value
2018-09-13T00:00:47.424Z,95470.73
2018-09-13T00:03:13.787Z,95468.27
2018-09-13T00:05:40.122Z,95466.30
2018-09-13T00:08:06.518Z,95466.98
2018-09-13T00:10:32.851Z,95465.28
2018-09-13T00:12:59.247Z,95459.91
2018-09-13T00:15:25.641Z,95456.09
2018-09-13T00:17:52.000Z,95454.88
2018-09-13T00:20:18.358Z,95460.50
2018-09-13T00:22:45.434Z,95445.25
2018-09-13T00:25:11.765Z,95455.39
2018-09-13T00:27:38.118Z,95453.69
2018-09-13T00:30:04.482Z,95452.91
2018-09-13T00:32:30.821Z,95454.28
2018-09-13T00:34:57.220Z,95453.20
2018-09-13T00:37:23.571Z,95448.17
2018-09-13T00:39:49.949Z,95452.61
2018-09-13T00:42:16.338Z,95450.87
2018-09-13T00:44:42.705Z,95451.30
2018-09-13T00:47:09.032Z,95456.56
2018-09-13T00:49:35.394Z,95451.92
2018-09-13T00:52:01.765Z,95440.99
2018-09-13T00:54:28.113Z,95439.30
2018-09-13T00:56:54.469Z,95437.34
2018-09-13T00:59:20.829Z,95431.17
2018-09-13T01:01:47.184Z,95433.53
2018-09-13T01:04:13.548Z,95435.66
2018-09-13T01:06:39.890Z,95431.78
2018-09-13T01:09:06.240Z,95431.72
2018-09-13T01:11:32.582Z,95422.66
2018-09-13T01:13:58.922Z,95422.46
2018-09-13T01:16:25.276Z,95421.80
2018-09-13T01:18:51.648Z,95415.52
2018-09-13T01:21:18.015Z,95417.16
2018-09-13T01:23:44.370Z,95417.33
2018-09-13T01:26:10.803Z,95422.11
2018-09-13T01:28:37.203Z,95422.06
2018-09-13T01:31:03.555Z,95420.07
2018-09-13T01:33:30.176Z,95418.78
2018-09-13T01:35:56.512Z,95417.55
2018-09-13T01:38:22.933Z,95414.32
2018-09-13T01:40:49.285Z,95411.56
2018-09-13T01:43:15.628Z,95411.42
2018-09-13T01:45:42.039Z,95418.25
2018-09-13T01:48:08.391Z,95411.45
2018-09-13T01:50:34.785Z,95409.59
2018-09-13T01:53:01.136Z,95411.58
2018-09-13T01:55:27.516Z,95415.86
2018-09-13T01:57:53.851Z,95412.54
2018-09-13T02:00:20.218Z,95410.84
2018-09-13T02:02:46.609Z,95410.23
2018-09-13T02:05:12.945Z,95408.94
2018-09-13T02:07:39.296Z,95414.86
2018-09-13T02:10:05.704Z,95411.39
2018-09-13T02:12:32.185Z,95408.23
2018-09-13T02:14:58.579Z,95408.31
2018-09-13T02:17:25.039Z,95399.56
2018-09-13T02:19:51.545Z,95398.81
2018-09-13T02:22:17.930Z,95398.48
2018-09-13T02:24:44.300Z,95397.78
2018-09-13T02:27:10.680Z,95396.49
2018-09-13T02:29:37.071Z,95392.63
2018-09-13T02:32:03.535Z,95377.84
2018-09-13T02:34:29.966Z,95391.44
2018-09-13T02:36:56.336Z,95391.44
2018-09-13T02:39:22.700Z,95388.14
2018-09-13T02:41:49.075Z,95386.75
2018-09-13T02:44:15.545Z,95379.66
2018-09-13T02:46:42.096Z,95375.09
2018-09-13T02:49:08.500Z,95376.74
2018-09-13T02:51:34.926Z,95370.72
2018-09-13T02:54:01.308Z,95378.69
2018-09-13T02:56:27.707Z,95367.37
2018-09-13T02:58:54.106Z,95365.09
2018-09-13T03:01:20.495Z,95362.94
2018-09-13T03:03:46.859Z,95362.89
2018-09-13T03:06:13.215Z,95361.66
2018-09-13T03:08:39.580Z,95360.61
2018-09-13T03:11:05.916Z,95357.75
2018-09-13T03:13:32.328Z,95362.89
2018-09-13T03:15:58.728Z,95365.64
2018-09-13T03:18:25.174Z,95363.09
2018-09-13T03:20:51.529Z,95360.02
2018-09-13T03:23:18.012Z,95364.29
2018-09-13T03:25:44.448Z,95367.16
2018-09-13T03:28:10.838Z,95374.95
2018-09-13T03:30:37.227Z,95374.20
2018-09-13T03:33:03.715Z,95368.73
2018-09-13T03:35:30.105Z,95363.65
2018-09-13T03:37:56.510Z,95369.09
2018-09-13T03:40:22.864Z,95374.16
2018-09-13T03:42:49.211Z,95380.28
2018-09-13T03:45:15.718Z,95380.11
2018-09-13T03:47:42.263Z,95370.09
2018-09-13T03:50:08.704Z,95374.71
2018-09-13T03:52:35.141Z,95364.45
2018-09-13T03:55:01.513Z,95365.02
2018-09-13T03:57:27.903Z,95367.03
2018-09-13T03:59:54.270Z,95369.07
2018-09-13T04:02:20.760Z,95374.95
2018-09-13T04:04:47.142Z,95377.16
2018-09-13T04:07:13.508Z,95378.14
2018-09-13T04:09:40.001Z,95384.50
2018-09-13T04:12:06.399Z,95389.59
2018-09-13T04:14:32.767Z,95388.44
2018-09-13T04:16:59.160Z,95388.91
2018-09-13T04:19:25.567Z,95379.25
2018-09-13T04:21:51.898Z,95377.74
2018-09-13T04:24:18.294Z,95381.02
2018-09-13T04:26:44.690Z,95380.80
2018-09-13T04:29:11.086Z,95378.83
2018-09-13T04:31:37.447Z,95380.48
2018-09-13T04:34:03.858Z,95378.36
2018-09-13T04:36:30.255Z,95385.53
2018-09-13T04:38:56.618Z,95384.43
2018-09-13T04:41:23.010Z,95380.63
2018-09-13T04:43:49.413Z,95378.65
2018-09-13T04:46:15.808Z,95378.14
2018-09-13T04:48:42.174Z,95379.26
2018-09-13T04:51:08.650Z,95385.94
2018-09-13T04:53:35.023Z,95383.31
2018-09-13T04:56:01.407Z,95384.46
2018-09-13T04:58:27.778Z,95386.72
2018-09-13T05:00:54.172Z,95386.98
2018-09-13T05:03:20.557Z,95386.98
2018-09-13T05:05:46.963Z,95387.27
2018-09-13T05:08:13.321Z,95389.28
2018-09-13T05:10:39.698Z,95388.08
2018-09-13T05:13:06.131Z,95396.64
2018-09-13T05:15:32.516Z,95396.77
2018-09-13T05:17:58.930Z,95395.48
2018-09-13T05:20:25.360Z,95394.84
2018-09-13T05:22:51.795Z,95392.53
2018-09-13T05:25:18.119Z,95400.30
2018-09-13T05:27:44.542Z,95388.86
2018-09-13T05:30:10.982Z,95390.22
2018-09-13T05:32:37.321Z,95384.12
2018-09-13T05:35:03.742Z,95382.99
2018-09-13T05:37:30.158Z,95386.16
2018-09-13T05:39:56.574Z,95385.84
2018-09-13T05:42:22.978Z,95381.56
2018-09-13T05:44:49.409Z,95382.77
2018-09-13T05:47:15.784Z,95373.96
2018-09-13T05:49:42.139Z,95378.48
2018-09-13T05:52:08.529Z,95374.55
2018-09-13T05:54:34.870Z,95371.33
2018-09-13T05:57:01.343Z,95372.35
2018-09-13T05:59:27.716Z,95367.22
2018-09-13T06:01:54.242Z,95367.09
2018-09-13T06:04:20.636Z,95369.75
2018-09-13T06:06:47.050Z,95371.20
2018-09-13T06:09:13.444Z,95380.23
2018-09-13T06:11:39.897Z,95376.05
2018-09-13T06:14:06.287Z,95377.13
2018-09-13T06:16:32.696Z,95379.88
2018-09-13T06:18:59.049Z,95375.26
2018-09-13T06:21:25.507Z,95368.20
2018-09-13T06:23:51.884Z,95375.48
2018-09-13T06:26:18.298Z,95367.61
2018-09-13T06:28:44.674Z,95353.73
2018-09-13T06:31:11.686Z,95368.14
2018-09-13T06:33:38.106Z,95362.84
2018-09-13T06:36:04.542Z,95359.02
2018-09-13T06:38:30.892Z,95360.73
2018-09-13T06:40:57.282Z,95363.20
2018-09-13T06:43:23.685Z,95365.36
2018-09-13T06:45:50.168Z,95370.02
2018-09-13T06:48:16.598Z,95376.22
2018-09-13T06:50:43.002Z,95367.59
2018-09-13T06:53:09.399Z,95367.53
2018-09-13T06:55:35.754Z,95370.31
2018-09-13T06:58:02.178Z,95370.90
2018-09-13T07:00:28.558Z,95372.95
2018-09-13T07:02:55.447Z,95371.08
2018-09-13T07:05:22.282Z,95368.84
2018-09-13T07:07:50.545Z,95366.86
2018-09-13T07:10:21.309Z,95364.73
2018-09-13T07:12:48.825Z,95369.41
2018-09-13T07:15:15.285Z,95358.92
2018-09-13T07:17:41.640Z,95365.94
2018-09-13T07:20:08.038Z,95361.11
2018-09-13T07:22:34.470Z,95357.45
2018-09-13T07:25:00.945Z,95357.05
2018-09-13T07:27:27.347Z,95352.90
2018-09-13T07:29:53.755Z,95356.50
2018-09-13T07:32:20.213Z,95353.17
2018-09-13T07:34:46.717Z,95356.12
2018-09-13T07:37:13.108Z,95355.89
2018-09-13T07:39:39.545Z,95358.20
2018-09-13T07:42:05.919Z,95352.58
2018-09-13T07:44:32.379Z,95349.02
2018-09-13T07:46:58.788Z,95348.88
2018-09-13T07:49:25.435Z,95354.48
2018-09-13T07:51:51.855Z,95354.27
2018-09-13T07:54:18.286Z,95354.84
2018-09-13T07:56:44.681Z,95358.30
2018-09-13T07:59:11.064Z,95358.14
2018-09-13T08:01:37.547Z,95357.23
2018-09-13T08:04:03.948Z,95353.95
2018-09-13T08:06:30.342Z,95353.61
2018-09-13T08:08:56.804Z,95351.39
2018-09-13T08:11:23.314Z,95353.78
2018-09-13T08:13:49.723Z,95352.64
2018-09-13T08:16:16.362Z,95358.64
2018-09-13T08:18:42.821Z,95358.73
2018-09-13T08:21:09.213Z,95351.66
2018-09-13T08:23:35.604Z,95353.63
2018-09-13T08:26:02.017Z,95349.03
2018-09-13T08:28:28.471Z,95352.81
2018-09-13T08:30:54.860Z,95349.50
2018-09-13T08:33:21.288Z,95354.11
2018-09-13T08:35:47.641Z,95349.91
2018-09-13T08:38:13.991Z,95343.64
2018-09-13T08:40:40.461Z,95352.20
2018-09-13T08:43:06.840Z,95348.61
2018-09-13T08:45:33.246Z,95345.41
2018-09-13T08:47:59.671Z,95343.19
2018-09-13T08:50:26.091Z,95340.54
2018-09-13T08:52:52.519Z,95338.02
2018-09-13T08:55:18.991Z,95327.61
2018-09-13T08:57:45.319Z,95326.15
2018-09-13T09:00:11.704Z,95331.59
2018-09-13T09:02:38.119Z,95322.78
2018-09-13T09:05:04.524Z,95320.93
2018-09-13T09:07:30.891Z,95317.97
2018-09-13T09:09:57.313Z,95317.67
2018-09-13T09:12:23.690Z,95306.86
2018-09-13T09:14:50.135Z,95309.12
2018-09-13T09:17:16.528Z,95304.31
2018-09-13T09:19:42.950Z,95301.11
2018-09-13T09:22:09.284Z,95299.71
2018-09-13T09:24:35.608Z,95299.03
2018-09-13T09:27:01.968Z,95297.33
2018-09-13T09:29:28.495Z,95297.42
2018-09-13T09:31:54.731Z,95297.95
2018-09-13T09:34:21.093Z,95294.88
2018-09-13T09:36:47.547Z,95292.30
2018-09-13T09:39:13.900Z,95290.33
2018-09-13T09:41:40.389Z,95277.86
2018-09-13T09:44:06.803Z,95281.00
2018-09-13T09:46:33.135Z,95287.53
2018-09-13T09:48:59.464Z,95284.13
2018-09-13T09:51:25.829Z,95280.66
2018-09-13T09:53:52.232Z,95279.34
2018-09-13T09:56:18.694Z,95281.20
2018-09-13T09:58:45.039Z,95272.47
2018-09-13T10:01:11.435Z,95269.27
2018-09-13T10:03:37.784Z,95275.18
2018-09-13T10:06:04.164Z,95262.89
2018-09-13T10:08:30.587Z,95263.95
2018-09-13T10:10:57.000Z,95259.77
2018-09-13T10:13:23.348Z,95258.01
2018-09-13T10:15:49.709Z,95251.53
2018-09-13T10:18:16.097Z,95256.91
2018-09-13T10:20:42.443Z,95257.81
2018-09-13T10:23:08.820Z,95254.27
2018-09-13T10:25:35.376Z,95251.06
2018-09-13T10:28:01.819Z,95246.41
2018-09-13T10:30:28.200Z,95238.08
2018-09-13T10:32:54.618Z,95242.02
2018-09-13T10:35:20.974Z,95240.89
2018-09-13T10:37:47.345Z,95245.95
2018-09-13T10:40:13.759Z,95229.11
2018-09-13T10:42:40.099Z,95229.32
2018-09-13T10:45:06.476Z,95228.72
2018-09-13T10:47:32.892Z,95225.89
2018-09-13T10:49:59.264Z,95219.64
2018-09-13T10:52:25.708Z,95219.44
2018-09-13T10:54:52.028Z,95212.09
2018-09-13T10:57:18.468Z,95209.09
2018-09-13T10:59:44.898Z,95203.16
2018-09-13T11:02:11.259Z,95203.52
2018-09-13T11:04:37.695Z,95203.36
2018-09-13T11:07:04.109Z,95196.80
2018-09-13T11:09:30.531Z,95193.59
2018-09-13T11:11:56.908Z,95190.18
2018-09-13T11:14:23.292Z,95181.55
2018-09-13T11:16:49.638Z,95184.84
2018-09-13T11:19:15.996Z,95181.28
2018-09-13T11:21:42.434Z,95174.67
2018-09-13T11:24:08.934Z,95165.41
2018-09-13T11:26:35.379Z,95166.20
2018-09-13T11:29:01.717Z,95159.38
2018-09-13T11:31:28.130Z,95156.47
2018-09-13T11:33:54.594Z,95153.58
2018-09-13T11:36:21.069Z,95157.09
2018-09-13T11:38:47.434Z,95155.54
2018-09-13T11:41:13.780Z,95145.61
2018-09-13T11:43:40.111Z,95149.49
2018-09-13T11:46:06.510Z,95144.38
2018-09-13T11:48:32.864Z,95133.98
2018-09-13T11:50:59.291Z,95132.28
2018-09-13T11:53:25.729Z,95131.30
2018-09-13T11:55:52.078Z,95122.77
2018-09-13T11:58:18.479Z,95116.98
2018-09-13T12:00:44.833Z,95109.69
2018-09-13T12:03:11.186Z,95108.50
2018-09-13T12:05:37.590Z,95104.88
2018-09-13T12:08:03.968Z,95105.40
2018-09-13T12:10:30.376Z,95094.52
2018-09-13T12:12:56.734Z,95102.40
2018-09-13T12:15:23.219Z,95098.83
2018-09-13T12:17:49.703Z,95098.88
2018-09-13T12:20:16.060Z,95094.80
2018-09-13T12:22:42.469Z,95101.52
2018-09-13T12:25:08.835Z,95103.17
2018-09-13T12:27:35.368Z,95096.98
2018-09-13T12:30:01.900Z,95102.30
2018-09-13T12:32:28.487Z,95105.72
2018-09-13T12:34:54.896Z,95111.45
2018-09-13T12:37:21.230Z,95115.63
2018-09-13T12:39:47.638Z,95111.02
2018-09-13T12:42:14.074Z,95112.38
2018-09-13T12:44:40.450Z,95108.81
2018-09-13T12:47:08.729Z,95107.93
2018-09-13T12:49:35.063Z,95109.61
2018-09-13T12:52:01.598Z,95111.55
2018-09-13T12:54:27.958Z,95119.19
2018-09-13T12:56:54.423Z,95112.56
2018-09-13T12:59:20.760Z,95112.23
2018-09-13T13:01:47.147Z,95111.12
2018-09-13T13:04:13.475Z,95104.19
2018-09-13T13:06:39.832Z,95107.56
2018-09-13T13:09:06.363Z,95112.94
2018-09-13T13:11:32.723Z,95104.71
2018-09-13T13:13:59.189Z,95095.87
2018-09-13T13:16:25.625Z,95092.52
2018-09-13T13:18:51.941Z,95093.39
2018-09-13T13:21:18.355Z,95094.98
2018-09-13T13:23:45.041Z,95095.62
2018-09-13T13:26:11.389Z,95091.22
2018-09-13T13:28:37.828Z,95076.80
2018-09-13T13:31:04.175Z,95083.78
2018-09-13T13:33:30.503Z,95077.59
2018-09-13T13:35:56.871Z,95080.45
2018-09-13T13:38:23.259Z,95076.06
2018-09-13T13:40:49.644Z,95079.27
2018-09-13T13:43:15.996Z,95072.95
2018-09-13T13:45:42.393Z,95081.42
2018-09-13T13:48:08.886Z,95077.73
2018-09-13T13:50:35.319Z,95071.18
2018-09-13T13:53:01.668Z,95077.95
2018-09-13T13:55:28.693Z,95070.00
2018-09-13T13:57:55.124Z,95075.30
2018-09-13T14:00:21.474Z,95063.40
2018-09-13T14:02:47.854Z,95063.80
2018-09-13T14:05:14.191Z,95063.95
2018-09-13T14:07:40.595Z,95063.98
2018-09-13T14:10:07.133Z,95061.78
2018-09-13T14:12:33.450Z,95066.30
2018-09-13T14:14:59.852Z,95065.54
2018-09-13T14:17:26.386Z,95066.95
2018-09-13T14:19:52.772Z,95068.53
2018-09-13T14:22:19.145Z,95065.19
2018-09-13T14:24:45.485Z,95070.67
2018-09-13T14:27:11.827Z,95066.22
2018-09-13T14:29:38.172Z,95072.23
2018-09-13T14:32:04.524Z,95065.86
2018-09-13T14:34:30.898Z,95063.13
2018-09-13T14:36:57.231Z,95067.08
2018-09-13T14:39:23.598Z,95065.24
2018-09-13T14:41:50.005Z,95064.23
2018-09-13T14:44:16.364Z,95059.63
2018-09-13T14:46:42.699Z,95066.59
2018-09-13T14:49:09.065Z,95057.23
2018-09-13T14:51:35.424Z,95051.77
2018-09-13T14:54:01.891Z,95045.20
2018-09-13T14:56:28.260Z,95038.64
2018-09-13T14:58:54.661Z,95029.91
2018-09-13T15:01:21.000Z,95036.87
2018-09-13T15:03:47.342Z,95041.27
2018-09-13T15:06:13.684Z,95048.72
2018-09-13T15:08:40.044Z,95045.77
2018-09-13T15:11:06.379Z,95042.09
2018-09-13T15:13:32.716Z,95043.42
2018-09-13T15:15:59.068Z,95045.15
2018-09-13T15:18:25.440Z,95040.50
2018-09-13T15:20:51.858Z,95041.53
2018-09-13T15:23:18.198Z,95044.85
2018-09-13T15:25:44.550Z,95052.45
2018-09-13T15:28:10.894Z,95051.94
2018-09-13T15:30:37.228Z,95052.59
2018-09-13T15:33:03.572Z,95056.16
2018-09-13T15:35:29.920Z,95059.41
2018-09-13T15:37:56.255Z,95066.05
2018-09-13T15:40:22.586Z,95060.92
2018-09-13T15:42:48.947Z,95072.44
2018-09-13T15:45:15.296Z,95072.23
2018-09-13T15:47:41.710Z,95071.04
2018-09-13T15:50:08.066Z,95073.73
2018-09-13T15:52:34.477Z,95070.70
2018-09-13T15:55:00.857Z,95072.61
2018-09-13T15:57:27.261Z,95073.02
2018-09-13T15:59:53.579Z,95080.46
2018-09-13T16:02:19.917Z,95087.33
2018-09-13T16:04:46.333Z,95080.25
2018-09-13T16:07:12.744Z,95081.55
2018-09-13T16:09:39.152Z,95083.66
2018-09-13T16:12:05.494Z,95079.53
2018-09-13T16:14:31.866Z,95080.77
2018-09-13T16:16:58.340Z,95085.32
2018-09-13T16:19:24.738Z,95083.97
2018-09-13T16:21:51.101Z,95075.87
2018-09-13T16:24:17.494Z,95070.72
2018-09-13T16:26:43.846Z,95078.25
2018-09-13T16:29:10.191Z,95083.31
2018-09-13T16:31:36.595Z,95083.92
2018-09-13T16:34:02.980Z,95090.19
2018-09-13T16:36:29.401Z,95093.03
2018-09-13T16:38:55.756Z,95091.42
2018-09-13T16:41:22.150Z,95090.23
2018-09-13T16:43:48.613Z,95086.88
2018-09-13T16:46:14.956Z,95088.38
2018-09-13T16:48:41.301Z,95092.97
2018-09-13T16:51:07.686Z,95089.45
2018-09-13T16:53:34.045Z,95093.53
2018-09-13T16:56:00.428Z,95092.45
2018-09-13T16:58:26.776Z,95095.55
2018-09-13T17:00:53.169Z,95097.98
2018-09-13T17:03:19.602Z,95105.45
2018-09-13T17:05:45.973Z,95111.72
2018-09-13T17:08:12.333Z,95106.23
2018-09-13T17:10:38.761Z,95111.86
2018-09-13T17:13:05.130Z,95107.43
2018-09-13T17:15:31.487Z,95110.01
2018-09-13T17:17:57.831Z,95113.36
2018-09-13T17:20:24.319Z,95114.13
2018-09-13T17:22:50.750Z,95114.87
2018-09-13T17:25:17.106Z,95117.28
2018-09-13T17:27:43.514Z,95117.81
2018-09-13T17:30:09.860Z,95120.25
2018-09-13T17:32:36.189Z,95124.67
2018-09-13T17:35:02.584Z,95122.62
2018-09-13T17:37:28.976Z,95121.68
2018-09-13T17:39:55.326Z,95121.73
2018-09-13T17:42:21.731Z,95114.05
2018-09-13T17:44:48.076Z,95118.41
2018-09-13T17:47:14.466Z,95117.13
2018-09-13T17:49:41.193Z,95118.47
2018-09-13T17:52:07.611Z,95115.48
2018-09-13T17:54:33.949Z,95113.77
2018-09-13T17:57:00.355Z,95119.77
2018-09-13T17:59:26.721Z,95117.70
2018-09-13T18:01:53.121Z,95119.82
2018-09-13T18:04:19.570Z,95119.05
2018-09-13T18:06:45.958Z,95119.19
2018-09-13T18:09:12.297Z,95114.49
2018-09-13T18:11:38.662Z,95116.72
2018-09-13T18:14:05.009Z,95117.19
2018-09-13T18:16:31.347Z,95110.27
2018-09-13T18:18:57.712Z,95115.98
2018-09-13T18:21:24.114Z,95113.05
2018-09-13T18:23:50.450Z,95111.48
2018-09-13T18:26:16.787Z,95110.19
2018-09-13T18:28:43.131Z,95110.66
2018-09-13T18:31:09.507Z,95110.24
2018-09-13T18:33:35.935Z,95102.20
2018-09-13T18:36:02.301Z,95098.47
2018-09-13T18:38:28.657Z,95095.12
2018-09-13T18:40:55.097Z,95094.18
2018-09-13T18:43:21.571Z,95091.66
2018-09-13T18:45:47.952Z,95087.98
2018-09-13T18:48:14.356Z,95095.06
2018-09-13T18:50:40.726Z,95096.60
2018-09-13T18:53:07.099Z,95099.02
2018-09-13T18:55:33.607Z,95100.20
2018-09-13T18:57:59.961Z,95102.16
2018-09-13T19:00:26.356Z,95098.48
2018-09-13T19:02:52.709Z,95096.15
2018-09-13T19:05:19.101Z,95095.27
2018-09-13T19:07:45.506Z,95102.33
2018-09-13T19:10:11.890Z,95097.36
2018-09-13T19:12:38.220Z,95096.89
2018-09-13T19:15:04.593Z,95090.88
2018-09-13T19:17:30.992Z,95096.12
2018-09-13T19:19:57.417Z,95093.37
2018-09-13T19:22:23.753Z,95097.02
2018-09-13T19:24:50.090Z,95095.16
2018-09-13T19:27:16.461Z,95087.72
2018-09-13T19:29:42.840Z,95091.36
2018-09-13T19:32:09.351Z,95090.88
2018-09-13T19:34:35.730Z,95095.48
2018-09-13T19:37:02.104Z,95092.73
2018-09-13T19:39:28.661Z,95092.92
2018-09-13T19:41:55.012Z,95089.30
2018-09-13T19:44:21.464Z,95092.62
2018-09-13T19:46:47.776Z,95085.73
2018-09-13T19:49:14.163Z,95086.66
2018-09-13T19:51:40.551Z,95091.23
2018-09-13T19:54:06.899Z,95084.92
2018-09-13T19:56:33.280Z,95085.03
2018-09-13T19:59:00.005Z,95086.56
2018-09-13T20:01:26.363Z,95089.44
2018-09-13T20:03:52.762Z,95088.50
2018-09-13T20:06:19.115Z,95086.44
2018-09-13T20:08:45.444Z,95084.83
2018-09-13T20:11:11.776Z,95092.55
2018-09-13T20:13:38.146Z,95094.61
2018-09-13T20:16:04.492Z,95099.30
2018-09-13T20:18:30.871Z,95099.17
2018-09-13T20:20:57.212Z,95102.58
2018-09-13T20:23:23.614Z,95102.77
2018-09-13T20:25:49.967Z,95100.30
2018-09-13T20:28:16.376Z,95095.73
2018-09-13T20:30:42.746Z,95096.91
2018-09-13T20:33:09.163Z,95098.55
2018-09-13T20:35:35.589Z,95107.41
2018-09-13T20:38:01.971Z,95106.58
2018-09-13T20:40:28.359Z,95110.63
2018-09-13T20:42:54.707Z,95100.37
2018-09-13T20:45:21.100Z,95102.66
2018-09-13T20:47:47.488Z,95101.97
2018-09-13T20:50:13.912Z,95103.72
2018-09-13T20:52:40.256Z,95106.24
2018-09-13T20:55:06.589Z,95105.01
2018-09-13T20:57:33.062Z,95108.31
2018-09-13T20:59:59.428Z,95108.31
2018-09-13T21:02:25.837Z,95105.38
2018-09-13T21:04:52.154Z,95111.09
2018-09-13T21:07:18.522Z,95107.73
2018-09-13T21:09:45.592Z,95110.45
2018-09-13T21:12:11.979Z,95112.62
2018-09-13T21:14:38.353Z,95112.62
2018-09-13T21:17:04.735Z,95113.22
2018-09-13T21:19:31.151Z,95111.05
2018-09-13T21:21:57.491Z,95106.66
2018-09-13T21:24:23.901Z,95105.19
2018-09-13T21:26:50.246Z,95099.05
2018-09-13T21:29:16.652Z,95102.74
2018-09-13T21:31:43.084Z,95100.17
2018-09-13T21:34:09.419Z,95095.66
2018-09-13T21:36:35.746Z,95094.24
2018-09-13T21:39:02.116Z,95099.75
2018-09-13T21:41:28.487Z,95093.65
2018-09-13T21:43:54.875Z,95096.77
2018-09-13T21:46:21.238Z,95096.41
2018-09-13T21:48:47.569Z,95091.31
2018-09-13T21:51:13.896Z,95093.88
2018-09-13T21:53:40.787Z,95092.83
2018-09-13T21:56:07.140Z,95093.37
2018-09-13T21:58:33.538Z,95094.17
2018-09-13T22:00:59.917Z,95087.91
2018-09-13T22:03:26.304Z,95092.29
2018-09-13T22:05:52.667Z,95087.27
2018-09-13T22:08:19.028Z,95094.64
2018-09-13T22:10:45.361Z,95094.64
2018-09-13T22:13:11.726Z,95101.63
2018-09-13T22:15:38.087Z,95106.69
2018-09-13T22:18:04.545Z,95105.99
2018-09-13T22:20:30.915Z,95104.70
2018-09-13T22:22:57.253Z,95102.72
2018-09-13T22:25:23.636Z,95103.98
2018-09-13T22:27:50.120Z,95107.70
2018-09-13T22:30:16.500Z,95107.84
2018-09-13T22:32:42.832Z,95109.95
2018-09-13T22:35:09.146Z,95105.50
2018-09-13T22:37:35.480Z,95112.35
2018-09-13T22:40:01.833Z,95112.81
2018-09-13T22:42:28.150Z,95115.06
2018-09-13T22:44:54.566Z,95115.20
2018-09-13T22:47:20.931Z,95114.05
2018-09-13T22:49:47.297Z,95109.36
2018-09-13T22:52:13.635Z,95116.67
2018-09-13T22:54:39.956Z,95121.17
2018-09-13T22:57:06.288Z,95115.66
2018-09-13T22:59:32.649Z,95119.48
2018-09-13T23:01:59.271Z,95117.55
2018-09-13T23:04:25.677Z,95125.22
2018-09-13T23:06:52.146Z,95123.62
2018-09-13T23:09:18.487Z,95119.80
2018-09-13T23:11:44.801Z,95119.11
2018-09-13T23:14:11.149Z,95121.63
2018-09-13T23:16:37.494Z,95123.98
2018-09-13T23:19:03.833Z,95119.53
2018-09-13T23:21:30.166Z,95123.25
2018-09-13T23:23:56.511Z,95125.55
2018-09-13T23:26:22.908Z,95121.28
2018-09-13T23:28:49.298Z,95124.31
2018-09-13T23:31:15.628Z,95124.78
2018-09-13T23:33:42.088Z,95123.26
2018-09-13T23:36:08.431Z,95125.50
2018-09-13T23:38:34.782Z,95129.36
2018-09-13T23:41:01.140Z,95125.64
2018-09-13T23:43:27.492Z,95115.98
2018-09-13T23:45:53.834Z,95115.29
2018-09-13T23:48:20.180Z,95116.12
2018-09-13T23:50:46.527Z,95118.28
2018-09-13T23:53:13.013Z,95121.54
2018-09-13T23:55:39.384Z,95122.41
2018-09-13T23:58:05.701Z,95124.52
